Detall de PIREP

Printer-friendly versionPDF version

[2011/05/27 20:56:00]
Flight IATA:CT1004
Pilot Number:042
Company ICAO:CAT
Aircraft Type:B763/F
PAX:263
Departing Airport: EGKK
Destination Airport: LIEA
Alternate Airport:LIEO
Online: VATSIM
Route:BOGNA UN615 XAMAB UL612 MILPA UM730 MEDAM UM623 PELOS
Flight Level:F350
No Slew and time accel
No pause
Crash detect
Detect pilot in Cockpit between each 30 and 45 minutes
20:56 Zero fuel Weight: 244976 Lbs, Fuel Weight: 161691 Lbs
20:56 VATSIM:EGKK 272020Z 21005KT CAVOK 12/05 Q1019
20:56 VATSIM:LIEA 272020Z 25003KT 9999 FEW004 SCT015 19/18 Q1016
20:57 VOICE CATALONIAN/CHAMPIONS LEAGUE FINAL CHARTER
21:36 Parking Brakes off
21:47 Take-off
21:47 Take off Weight: 404368 Lbs
21:47 Wind: 218 @ 006 Knots Heading: 257
21:47 POS N51 08 50 W000 11 44
21:47 Gear Up: 186 Knots
21:47 Flaps:3 at 187 Knots
21:50 Flaps:2 at 176 Knots
21:50 Flaps:1 at 215 Knots
21:51 Flaps:0 at 231 Knots
22:02 Wind:266@028 Knots Heading: 149 Ground Speed: 472 Knots Altitude 31135 ft
22:04 TOC
22:04 Fuel Weight: 150997 Lb
22:17 Wind:316@011 Knots Heading: 133 Ground Speed: 462 Knots Altitude 35226 ft
22:32 Wind:325@019 Knots Heading: 158 Ground Speed: 473 Knots Altitude 35213 ft
22:47 Wind:329@025 Knots Heading: 143 Ground Speed: 478 Knots Altitude 35203 ft
22:57 TOD
22:57 Fuel Weight: 139992 Lb
22:58 TOC
22:58 Fuel Weight: 139882 Lb
23:01 TOD
23:01 Fuel Weight: 139154 Lb
23:02 Wind:322@064 Knots Heading: 193 Ground Speed: 511 Knots Altitude 34051 ft
23:02 TOC
23:02 Fuel Weight: 139098 Lb
23:08 TOD
23:08 Fuel Weight: 137931 Lb
23:17 Wind:305@048 Knots Heading: 105 Ground Speed: 434 Knots Altitude 26459 ft
23:32 Wind:304@032 Knots Heading: 178 Ground Speed: 342 Knots Altitude 20751 ft
23:42 Flaps:1 at 230 Knots
23:47 Wind:269@028 Knots Heading: 355 Ground Speed: 269 Knots Altitude 10009 ft
23:49 Flaps:2 at 223 Knots
23:59 Flaps:3 at 179 Knots
00:02 Wind:260@004 Knots Heading: 178 Ground Speed: 173 Knots Altitude 2788 ft
00:09 Gear Down: 165 Knots
00:17 Wind:280@004 Knots Heading: 240 Ground Speed: 172 Knots Altitude 2667 ft
00:18 Flaps:4 at 164 Knots
00:21 Flaps:5 at 159 Knots
00:21 Flaps:6 at 159 Knots
00:24 TouchDown:Rate -187 ft/min Speed: 138 Knots
00:25 VATSIM:LIEA 272350Z 28004KT 9999 FEW010 17/17 Q1015
00:25 Land
00:25 Wind:280@004 Knots
00:25 Heading: 205
00:25 Flight Duration: 02:38
00:25 Landing Weight: 365681 Lbs
00:25 POS N40 37 41 E008 17 18
00:28 Parking brakes on
00:28 Block to Block Duration: 02:52
00:28 Final Fuel: 120050 Lbls
00:28 Spent Fuel: 41640 Lbls
00:28 Flight Length: 870 NM
00:28 TOD Land Length: 351 NM

Exportar CSV

Powered by Drupal - Modified by Danger4k